Time;durP1;ratioP1;P1;durP2;ratioP2;P2;SDS_P1;SDS_P2;PMS_P1;PMS_P2;Temp;Humidity;BMP_temperature;BMP_pressure;BME280_temperature;BME280_humidity;BME280_pressure;Samples;Min_cycle;Max_cycle;Signal;HPM_P1;HPM_P2
2022/03/23 00:01:34;;;;;;;8.90;5.22;;;6.10;60.00;;;;;;5040517;28;20045;-77
2022/03/23 00:04:01;;;;;;;7.40;4.90;;;6.10;60.00;;;;;;5058832;28;20016;-80
2022/03/23 00:06:27;;;;;;;6.22;4.47;;;6.00;60.20;;;;;;5058419;28;20054;-80
2022/03/23 00:08:53;;;;;;;6.43;4.32;;;6.00;60.60;;;;;;5057899;28;20018;-80
2022/03/23 00:11:19;;;;;;;7.97;4.97;;;5.90;60.80;;;;;;5041289;28;20037;-79
2022/03/23 00:13:45;;;;;;;7.55;4.70;;;5.90;60.90;;;;;;5025494;28;20431;-79
2022/03/23 00:16:11;;;;;;;7.95;4.70;;;5.90;61.00;;;;;;5035883;28;20067;-78
2022/03/23 00:18:37;;;;;;;7.97;5.03;;;5.80;61.30;;;;;;5034947;28;20026;-79
2022/03/23 00:21:02;;;;;;;9.48;5.50;;;5.70;61.60;;;;;;5035198;28;20116;-77
2022/03/23 00:23:28;;;;;;;9.07;5.32;;;5.70;62.20;;;;;;5035224;28;20148;-78
2022/03/23 00:25:54;;;;;;;9.07;5.80;;;5.70;62.80;;;;;;5034913;28;20087;-77
2022/03/23 00:28:20;;;;;;;10.02;5.60;;;5.60;63.20;;;;;;5035605;28;20032;-77
2022/03/23 00:30:48;;;;;;;7.32;4.80;;;5.60;63.30;;;;;;5035566;28;20061;-77
2022/03/23 00:33:15;;;;;;;10.57;5.45;;;5.60;63.40;;;;;;5035620;28;20026;-78
2022/03/23 00:35:41;;;;;;;7.65;4.75;;;5.60;63.60;;;;;;5034529;28;20504;-78
2022/03/23 00:38:07;;;;;;;8.43;5.65;;;5.50;63.60;;;;;;5036243;28;20060;-79
2022/03/23 00:40:33;;;;;;;10.15;5.75;;;5.50;63.70;;;;;;5037828;28;20041;-78
2022/03/23 00:43:01;;;;;;;9.15;5.40;;;5.50;63.80;;;;;;5052509;28;20044;-79
2022/03/23 00:45:30;;;;;;;9.20;5.57;;;5.50;63.90;;;;;;5041793;28;20051;-76
2022/03/23 00:47:57;;;;;;;11.60;6.00;;;5.50;64.20;;;;;;5036255;28;20143;-78
2022/03/23 00:50:23;;;;;;;8.57;6.05;;;5.40;64.50;;;;;;5036696;28;20112;-78
2022/03/23 00:52:49;;;;;;;8.93;5.75;;;5.40;64.70;;;;;;5034544;28;20109;-77
2022/03/23 00:55:15;;;;;;;7.95;4.97;;;5.30;65.10;;;;;;5034643;28;20037;-78
2022/03/23 00:57:41;;;;;;;8.70;5.55;;;5.30;65.30;;;;;;5034680;28;20227;-78
2022/03/23 01:00:12;;;;;;;10.82;5.63;;;5.30;65.50;;;;;;5034628;28;20363;-78
2022/03/23 01:02:42;;;;;;;7.30;4.57;;;5.30;65.60;;;;;;5034553;28;20017;-78
2022/03/23 01:05:09;;;;;;;7.75;4.97;;;5.30;65.70;;;;;;5024159;28;20030;-78
2022/03/23 01:07:35;;;;;;;7.85;4.30;;;5.20;65.90;;;;;;5034300;28;20483;-78
2022/03/23 01:10:01;;;;;;;5.75;4.22;;;5.20;66.10;;;;;;5033183;28;20025;-77
2022/03/23 01:12:27;;;;;;;8.65;4.72;;;5.20;66.20;;;;;;5034403;28;20480;-78
2022/03/23 01:14:53;;;;;;;5.53;3.95;;;5.20;66.20;;;;;;5034598;28;20075;-79
2022/03/23 01:17:19;;;;;;;5.05;3.75;;;5.20;66.30;;;;;;5036336;28;20370;-79
2022/03/23 01:19:44;;;;;;;8.02;4.80;;;5.20;66.50;;;;;;5034366;28;20045;-79
2022/03/23 01:22:10;;;;;;;8.40;4.47;;;5.10;66.50;;;;;;5034234;28;20017;-79
2022/03/23 01:24:36;;;;;;;7.90;4.95;;;5.10;66.70;;;;;;5034326;28;20029;-79
2022/03/23 01:27:03;;;;;;;6.00;4.38;;;5.10;67.10;;;;;;5033852;28;20478;-77
2022/03/23 01:29:29;;;;;;;5.60;4.00;;;5.10;67.60;;;;;;5033529;28;20486;-78
2022/03/23 01:31:55;;;;;;;7.88;4.40;;;5.00;68.00;;;;;;5032619;28;20457;-78
2022/03/23 01:34:21;;;;;;;7.22;5.00;;;5.00;68.30;;;;;;5049038;28;20025;-78
2022/03/23 01:36:47;;;;;;;9.07;5.03;;;4.90;68.60;;;;;;5032387;28;20070;-79
2022/03/23 01:39:12;;;;;;;9.73;4.90;;;4.90;68.90;;;;;;5033113;28;20053;-79
2022/03/23 01:41:40;;;;;;;7.30;4.68;;;4.90;69.20;;;;;;5033543;28;20029;-78
2022/03/23 01:44:22;;;;;;;7.80;4.60;;;4.90;69.50;;;;;;5025115;28;20152;-78
2022/03/23 01:47:14;;;;;;;7.70;4.72;;;4.90;69.50;;;;;;5033877;28;20022;-78
2022/03/23 01:49:49;;;;;;;7.88;4.60;;;4.90;69.70;;;;;;5032688;28;20120;-78
2022/03/23 01:52:17;;;;;;;8.63;4.53;;;4.90;69.70;;;;;;5033999;28;20033;-78
2022/03/23 01:54:44;;;;;;;9.23;4.68;;;4.90;69.90;;;;;;5035056;28;20125;-79
2022/03/23 01:57:12;;;;;;;7.10;4.45;;;4.90;70.00;;;;;;5035038;28;20489;-78
2022/03/23 01:59:38;;;;;;;7.20;4.53;;;4.90;69.90;;;;;;5032144;28;20030;-79
2022/03/23 02:02:05;;;;;;;7.55;4.97;;;4.90;69.80;;;;;;5033827;28;20359;-79
2022/03/23 02:04:31;;;;;;;8.10;4.90;;;4.90;69.80;;;;;;5033673;28;20014;-78
2022/03/23 02:06:57;;;;;;;7.90;4.55;;;4.80;69.80;;;;;;5035157;28;20032;-78
2022/03/23 02:09:24;;;;;;;8.38;4.93;;;4.70;69.90;;;;;;5036401;28;20594;-80
2022/03/23 02:11:52;;;;;;;5.55;3.70;;;4.70;70.10;;;;;;5035755;28;20574;-78
2022/03/23 02:14:19;;;;;;;7.72;4.85;;;4.60;70.30;;;;;;5026321;28;20120;-78
2022/03/23 02:16:47;;;;;;;9.45;5.35;;;4.60;70.40;;;;;;5033039;28;20030;-78
2022/03/23 02:19:13;;;;;;;10.35;5.40;;;4.60;70.40;;;;;;5032553;28;20048;-77
2022/03/23 02:21:55;;;;;;;7.93;4.95;;;4.60;70.50;;;;;;5032811;28;20489;-76
2022/03/23 02:24:25;;;;;;;8.27;4.47;;;4.60;70.60;;;;;;5032876;28;20056;-78
2022/03/23 02:26:51;;;;;;;8.13;4.70;;;4.60;70.70;;;;;;5033174;28;20025;-77
2022/03/23 02:29:19;;;;;;;7.90;5.10;;;4.60;70.60;;;;;;5032308;28;20429;-77
2022/03/23 02:31:44;;;;;;;7.28;4.70;;;4.60;70.60;;;;;;5031418;28;20441;-77
2022/03/23 02:34:10;;;;;;;6.47;4.28;;;4.50;70.70;;;;;;5032643;28;20021;-78
2022/03/23 02:36:36;;;;;;;10.02;5.07;;;4.50;70.80;;;;;;5033777;28;20358;-79
2022/03/23 02:39:02;;;;;;;7.85;5.22;;;4.50;71.20;;;;;;5032642;28;20474;-78
2022/03/23 02:41:28;;;;;;;7.20;4.82;;;4.50;71.20;;;;;;5031932;28;20025;-79
2022/03/23 02:43:55;;;;;;;8.82;4.57;;;4.50;71.40;;;;;;5032171;28;20022;-78
2022/03/23 02:46:23;;;;;;;7.35;4.40;;;4.40;71.30;;;;;;5033309;28;20021;-79
2022/03/23 02:48:52;;;;;;;7.47;4.40;;;4.40;71.30;;;;;;5032863;28;20029;-78
2022/03/23 02:51:19;;;;;;;7.03;4.30;;;4.40;71.30;;;;;;5035669;28;20088;-81
2022/03/23 03:02:40;;;;;;;6.80;4.30;;;4.40;70.80;;;;;;5043891;28;20019;-81
2022/03/23 03:05:09;;;;;;;6.93;4.10;;;4.40;70.90;;;;;;5035995;28;20032;-78
2022/03/23 03:10:22;;;;;;;6.53;4.25;;;4.40;70.90;;;;;;5033877;28;20032;-78
2022/03/23 03:12:50;;;;;;;6.25;4.20;;;4.40;70.90;;;;;;5034013;28;20030;-78
2022/03/23 03:15:16;;;;;;;6.65;3.85;;;4.40;70.90;;;;;;5033951;28;20026;-79
2022/03/23 03:17:42;;;;;;;5.53;3.92;;;4.30;70.90;;;;;;5043067;28;20056;-79
2022/03/23 03:20:09;;;;;;;5.80;3.80;;;4.30;71.00;;;;;;5046131;28;20051;-78
2022/03/23 03:22:38;;;;;;;6.57;4.05;;;4.20;71.60;;;;;;5048951;28;20022;-79
2022/03/23 03:25:04;;;;;;;7.32;4.45;;;4.20;71.20;;;;;;5033543;28;20017;-79
2022/03/23 03:27:36;;;;;;;7.00;4.22;;;4.10;71.30;;;;;;5031901;28;20053;-79
2022/03/23 03:30:08;;;;;;;7.55;4.60;;;4.00;71.30;;;;;;5031817;28;20029;-79
2022/03/23 03:32:34;;;;;;;6.97;4.93;;;4.10;71.50;;;;;;5037386;28;20025;-80
2022/03/23 03:35:00;;;;;;;11.32;4.80;;;4.00;71.50;;;;;;5036585;28;20097;-79
2022/03/23 03:37:26;;;;;;;5.65;3.70;;;4.00;71.50;;;;;;5035779;28;20056;-79
2022/03/23 03:39:51;;;;;;;7.50;4.65;;;4.00;71.60;;;;;;5040365;28;20036;-79
2022/03/23 03:42:18;;;;;;;5.47;3.65;;;3.90;71.60;;;;;;5034488;28;20441;-79
2022/03/23 03:44:44;;;;;;;7.65;3.72;;;3.90;71.70;;;;;;5031456;28;20021;-79
2022/03/23 03:47:10;;;;;;;7.68;4.45;;;3.90;71.90;;;;;;5041065;28;20018;-79
2022/03/23 03:49:38;;;;;;;4.95;3.88;;;3.90;71.90;;;;;;5041080;28;20045;-79
2022/03/23 03:52:05;;;;;;;6.40;4.53;;;3.80;72.40;;;;;;5037061;28;20495;-80
2022/03/23 03:54:31;;;;;;;6.95;4.13;;;3.80;72.20;;;;;;5033707;28;20029;-79
2022/03/23 03:56:56;;;;;;;14.20;4.85;;;3.80;72.10;;;;;;5036103;28;20044;-78
2022/03/23 03:59:22;;;;;;;6.93;4.20;;;3.80;72.20;;;;;;5035312;28;20092;-78
2022/03/23 04:01:48;;;;;;;6.38;4.15;;;3.80;72.10;;;;;;5031343;28;20084;-78
2022/03/23 04:04:14;;;;;;;8.02;4.82;;;3.80;72.10;;;;;;5031002;28;20025;-79
2022/03/23 04:06:40;;;;;;;8.35;4.78;;;3.80;72.10;;;;;;5033282;28;20404;-78
2022/03/23 04:09:06;;;;;;;5.90;4.40;;;3.80;72.10;;;;;;5031548;28;20048;-79
2022/03/23 04:11:32;;;;;;;6.35;4.22;;;3.80;72.20;;;;;;5032296;28;20025;-77
2022/03/23 04:13:58;;;;;;;8.98;4.80;;;3.80;72.20;;;;;;5031227;28;20049;-79
2022/03/23 04:16:23;;;;;;;7.57;4.28;;;3.80;72.20;;;;;;5038377;28;20036;-79
2022/03/23 04:18:49;;;;;;;9.02;4.70;;;3.70;72.20;;;;;;5039450;28;20112;-79
2022/03/23 04:21:15;;;;;;;8.50;4.82;;;3.70;72.10;;;;;;5037932;28;20144;-80
2022/03/23 04:23:41;;;;;;;6.75;4.07;;;3.70;72.30;;;;;;5045301;28;20085;-80
2022/03/23 04:26:06;;;;;;;8.98;5.10;;;3.70;72.70;;;;;;5046956;28;20073;-80
2022/03/23 04:28:32;;;;;;;6.78;4.85;;;3.70;72.90;;;;;;5044774;28;20099;-78
2022/03/23 04:30:59;;;;;;;9.25;4.97;;;3.70;73.10;;;;;;5038567;28;20036;-76
2022/03/23 04:33:25;;;;;;;6.22;4.10;;;3.60;73.20;;;;;;5036865;28;20049;-78
2022/03/23 04:35:54;;;;;;;7.32;4.53;;;3.60;73.50;;;;;;5035370;28;20060;-78
2022/03/23 04:38:23;;;;;;;5.95;3.80;;;3.70;73.70;;;;;;5038670;28;20048;-78
2022/03/23 04:40:49;;;;;;;6.72;4.13;;;3.70;73.60;;;;;;5045744;28;20037;-79
2022/03/23 04:43:16;;;;;;;8.25;4.38;;;3.60;73.50;;;;;;5047796;28;20041;-79
2022/03/23 04:45:44;;;;;;;8.20;5.03;;;3.60;73.60;;;;;;5042314;28;20068;-78
2022/03/23 04:48:10;;;;;;;7.28;4.45;;;3.60;73.80;;;;;;5035224;28;20044;-79
2022/03/23 04:50:36;;;;;;;7.75;4.72;;;3.50;74.00;;;;;;5035211;28;20026;-77
2022/03/23 04:53:01;;;;;;;6.53;4.07;;;3.50;74.30;;;;;;5035120;28;20033;-78
2022/03/23 04:55:27;;;;;;;7.20;4.93;;;3.50;74.40;;;;;;5035428;28;20478;-78
2022/03/23 04:57:53;;;;;;;10.15;5.10;;;3.50;74.50;;;;;;5039570;28;20125;-79
2022/03/23 05:00:20;;;;;;;10.95;5.28;;;3.50;75.20;;;;;;5044529;28;20080;-80
2022/03/23 05:02:48;;;;;;;10.15;4.95;;;3.40;74.50;;;;;;5050850;28;20022;-78
2022/03/23 05:05:15;;;;;;;9.48;5.25;;;3.50;74.50;;;;;;5052526;28;20018;-79
2022/03/23 05:07:42;;;;;;;8.13;4.50;;;3.50;74.30;;;;;;5052475;28;20029;-79
2022/03/23 05:10:09;;;;;;;11.70;5.18;;;3.50;74.20;;;;;;5045520;28;20053;-79
2022/03/23 05:12:40;;;;;;;10.65;5.60;;;3.50;74.90;;;;;;5041003;28;20029;-78
2022/03/23 05:15:08;;;;;;;6.95;4.45;;;3.50;74.10;;;;;;5037034;28;20032;-79
2022/03/23 05:17:35;;;;;;;11.02;5.43;;;3.50;74.10;;;;;;5036151;28;20117;-78
2022/03/23 05:20:01;;;;;;;10.55;5.43;;;3.50;73.80;;;;;;5035955;28;20029;-78
2022/03/23 05:22:27;;;;;;;7.60;5.05;;;3.50;74.00;;;;;;5065142;22;20036;-79
2022/03/23 05:24:53;;;;;;;8.15;4.78;;;3.40;74.20;;;;;;5061475;28;20027;-79
2022/03/23 05:27:20;;;;;;;8.18;4.85;;;3.40;74.20;;;;;;5058820;28;20021;-79
2022/03/23 05:29:46;;;;;;;9.50;4.43;;;3.40;74.30;;;;;;5057405;28;20017;-79
2022/03/23 05:32:16;;;;;;;10.10;5.10;;;3.40;74.60;;;;;;5062837;28;20083;-79
2022/03/23 05:34:45;;;;;;;10.75;5.07;;;3.40;74.80;;;;;;5057925;28;20058;-79
2022/03/23 05:37:11;;;;;;;8.35;5.50;;;3.50;75.00;;;;;;5059403;28;20413;-79
2022/03/23 05:39:38;;;;;;;9.63;5.60;;;3.40;75.10;;;;;;5057287;28;20078;-80
2022/03/23 05:42:05;;;;;;;9.75;5.13;;;3.50;75.50;;;;;;5059237;28;20036;-79
2022/03/23 05:44:31;;;;;;;8.18;4.47;;;3.40;75.50;;;;;;5058035;28;20036;-79
2022/03/23 05:46:57;;;;;;;8.65;4.45;;;3.50;75.70;;;;;;5059548;28;20100;-78
2022/03/23 05:49:23;;;;;;;8.23;5.13;;;3.50;75.70;;;;;;5060469;28;20133;-79
2022/03/23 05:51:48;;;;;;;10.75;4.63;;;3.50;75.70;;;;;;5059118;28;20025;-78
2022/03/23 05:54:14;;;;;;;7.40;4.90;;;3.50;75.70;;;;;;5059538;28;20459;-79
2022/03/23 05:56:40;;;;;;;9.25;5.10;;;3.50;75.60;;;;;;5062311;28;20057;-80
2022/03/23 05:59:05;;;;;;;7.90;4.90;;;3.60;76.30;;;;;;5060937;28;20037;-79
2022/03/23 06:01:32;;;;;;;8.88;5.25;;;3.60;75.60;;;;;;5063086;28;20029;-79
2022/03/23 06:03:58;;;;;;;8.05;5.25;;;3.60;76.10;;;;;;5059602;28;20055;-78
2022/03/23 06:06:24;;;;;;;8.23;4.72;;;3.70;75.30;;;;;;5058971;28;20025;-78
2022/03/23 06:08:50;;;;;;;6.70;4.50;;;3.70;75.20;;;;;;5060418;28;20364;-79
2022/03/23 06:11:15;;;;;;;9.85;5.32;;;3.80;75.10;;;;;;5059128;28;20029;-78
2022/03/23 06:13:41;;;;;;;12.35;5.82;;;3.80;74.80;;;;;;5060095;28;20417;-79
2022/03/23 06:16:09;;;;;;;11.02;5.82;;;3.90;75.10;;;;;;5060467;28;20025;-79
2022/03/23 06:18:35;;;;;;;9.52;5.05;;;4.00;74.00;;;;;;5059321;28;20029;-80
2022/03/23 06:21:01;;;;;;;11.13;5.40;;;4.10;73.40;;;;;;5062467;28;20485;-79
2022/03/23 06:23:27;;;;;;;9.30;5.22;;;4.10;72.60;;;;;;5061187;28;20021;-79
2022/03/23 06:25:53;;;;;;;8.82;5.05;;;4.20;72.10;;;;;;5062412;28;20025;-79
2022/03/23 06:28:19;;;;;;;6.78;4.72;;;4.30;72.00;;;;;;5065437;28;20079;-79
2022/03/23 06:30:44;;;;;;;11.60;5.72;;;4.30;71.90;;;;;;5061087;28;20481;-79
2022/03/23 06:33:11;;;;;;;9.35;5.60;;;4.40;71.80;;;;;;5060652;28;20033;-78
2022/03/23 06:35:37;;;;;;;7.80;5.13;;;4.50;71.30;;;;;;5063303;28;20025;-78
2022/03/23 06:38:04;;;;;;;13.00;5.65;;;4.60;70.80;;;;;;5065217;28;20044;-79
2022/03/23 06:40:29;;;;;;;12.35;5.68;;;4.70;70.40;;;;;;5068197;28;20025;-78
2022/03/23 06:42:56;;;;;;;13.20;5.43;;;4.80;69.80;;;;;;5070607;28;20033;-78
2022/03/23 06:45:22;;;;;;;8.38;5.18;;;4.90;69.00;;;;;;5070870;28;20013;-78
2022/03/23 06:47:47;;;;;;;27.23;8.38;;;5.00;68.50;;;;;;5070937;28;20028;-77
2022/03/23 06:50:13;;;;;;;13.27;7.28;;;5.10;67.80;;;;;;5073812;28;20073;-78
2022/03/23 06:52:43;;;;;;;18.55;7.15;;;5.20;67.50;;;;;;5072584;28;20029;-78
2022/03/23 06:55:09;;;;;;;10.15;5.65;;;5.30;67.20;;;;;;5065556;28;20358;-79
2022/03/23 06:57:35;;;;;;;11.13;5.82;;;5.40;66.70;;;;;;5064057;28;20033;-79
2022/03/23 07:00:01;;;;;;;12.23;6.15;;;5.50;66.30;;;;;;5069983;28;20077;-78
2022/03/23 07:02:27;;;;;;;10.05;6.15;;;5.70;65.90;;;;;;5067287;28;20043;-78
2022/03/23 07:04:53;;;;;;;10.45;5.35;;;5.80;65.30;;;;;;5071267;28;20108;-80
2022/03/23 07:07:20;;;;;;;19.08;6.47;;;5.90;64.90;;;;;;5072020;28;20420;-79
2022/03/23 07:09:46;;;;;;;13.40;6.50;;;6.00;64.40;;;;;;5070540;28;20027;-78
2022/03/23 07:12:12;;;;;;;12.02;6.13;;;6.20;64.10;;;;;;5070867;28;20036;-79
2022/03/23 07:14:40;;;;;;;11.38;6.18;;;6.30;63.50;;;;;;5071491;28;20019;-78
2022/03/23 07:17:06;;;;;;;11.95;6.47;;;6.40;62.90;;;;;;5071867;28;20036;-80
2022/03/23 07:19:32;;;;;;;11.73;6.00;;;6.60;62.50;;;;;;5068380;28;20020;-77
2022/03/23 07:21:58;;;;;;;10.93;6.35;;;6.80;62.20;;;;;;5070501;28;20132;-78
2022/03/23 07:24:25;;;;;;;8.75;5.85;;;6.90;61.80;;;;;;5069197;28;20526;-78
2022/03/23 07:26:51;;;;;;;9.07;5.65;;;7.10;61.30;;;;;;5068775;28;20036;-79
2022/03/23 07:29:17;;;;;;;8.60;5.65;;;7.30;60.90;;;;;;5064919;28;20029;-77
2022/03/23 07:31:45;;;;;;;10.55;6.35;;;7.40;60.50;;;;;;5070216;28;20029;-79
2022/03/23 07:34:13;;;;;;;8.88;5.70;;;7.60;60.20;;;;;;5070134;28;20031;-79
2022/03/23 07:36:39;;;;;;;13.43;7.32;;;7.80;59.70;;;;;;5085373;28;20029;-79
2022/03/23 07:39:05;;;;;;;11.63;6.15;;;8.00;59.10;;;;;;5084946;28;20444;-78
2022/03/23 07:41:30;;;;;;;13.55;6.75;;;8.20;58.50;;;;;;5068354;28;20044;-80
2022/03/23 07:43:56;;;;;;;11.38;7.65;;;8.40;57.80;;;;;;5067091;28;20025;-79
2022/03/23 07:46:22;;;;;;;12.73;7.75;;;8.60;56.90;;;;;;5069170;28;20025;-79
2022/03/23 07:48:48;;;;;;;14.65;7.82;;;8.80;56.30;;;;;;5065718;28;20031;-78
2022/03/23 07:51:13;;;;;;;9.93;7.15;;;9.00;55.60;;;;;;5066003;28;20033;-78
2022/03/23 07:53:39;;;;;;;13.73;7.40;;;9.20;54.90;;;;;;5064363;28;20052;-80
2022/03/23 07:56:05;;;;;;;11.65;7.88;;;9.40;53.70;;;;;;5063881;28;20335;-80
2022/03/23 07:58:31;;;;;;;11.60;7.63;;;9.60;52.40;;;;;;5061918;28;20039;-79
2022/03/23 08:01:04;;;;;;;9.95;7.10;;;9.80;52.30;;;;;;5062798;28;20053;-81
2022/03/23 08:03:30;;;;;;;17.77;8.10;;;10.00;51.70;;;;;;5070209;28;20093;-79
2022/03/23 08:05:55;;;;;;;14.20;7.88;;;10.20;51.10;;;;;;5072973;28;20051;-78
2022/03/23 08:08:22;;;;;;;10.30;7.10;;;10.30;50.50;;;;;;5071018;28;20045;-79
2022/03/23 08:10:48;;;;;;;11.00;7.72;;;10.50;50.10;;;;;;5078825;28;20067;-77
2022/03/23 08:13:16;;;;;;;10.75;7.10;;;10.70;49.70;;;;;;5077884;28;20029;-76
2022/03/23 08:15:42;;;;;;;13.32;8.27;;;10.90;49.20;;;;;;5078155;28;20020;-77
2022/03/23 08:18:08;;;;;;;11.77;8.20;;;11.10;48.50;;;;;;5067443;28;20055;-79
2022/03/23 08:20:37;;;;;;;10.00;7.43;;;11.40;48.30;;;;;;5056551;28;20112;-79
2022/03/23 08:23:10;;;;;;;13.55;8.30;;;11.60;47.90;;;;;;5064762;28;20037;-78
2022/03/23 08:25:42;;;;;;;11.05;7.78;;;11.70;47.20;;;;;;5063412;28;20017;-79
2022/03/23 08:28:09;;;;;;;12.80;7.75;;;12.00;46.60;;;;;;5062030;28;20101;-78
2022/03/23 08:30:36;;;;;;;10.82;7.18;;;12.30;46.10;;;;;;5063451;28;20039;-79
2022/03/23 08:33:05;;;;;;;14.63;8.82;;;12.50;45.70;;;;;;5064620;28;20071;-80
2022/03/23 08:35:31;;;;;;;12.63;8.88;;;12.60;44.90;;;;;;5062602;28;20033;-78
2022/03/23 08:37:57;;;;;;;17.52;9.63;;;12.80;44.20;;;;;;5062353;28;20032;-79
2022/03/23 08:40:24;;;;;;;20.88;9.45;;;13.00;43.10;;;;;;5062543;28;20036;-78
2022/03/23 08:42:50;;;;;;;14.65;8.95;;;13.10;42.80;;;;;;5062364;28;20454;-80
2022/03/23 08:45:16;;;;;;;16.35;9.23;;;13.10;42.50;;;;;;5062300;28;20037;-79
2022/03/23 08:47:43;;;;;;;17.30;8.98;;;13.30;42.10;;;;;;5061803;28;20021;-79
2022/03/23 08:50:11;;;;;;;12.05;9.35;;;13.40;42.00;;;;;;5063416;28;20024;-79
2022/03/23 08:52:38;;;;;;;13.60;8.57;;;13.50;42.00;;;;;;5063069;28;20029;-80
2022/03/23 08:55:06;;;;;;;15.40;9.68;;;13.60;41.90;;;;;;5062445;28;20029;-78
2022/03/23 08:57:32;;;;;;;13.52;9.73;;;13.70;42.00;;;;;;5064870;28;20029;-78
2022/03/23 08:59:58;;;;;;;12.15;7.85;;;13.90;41.10;;;;;;5063469;28;20139;-80
2022/03/23 09:02:24;;;;;;;11.57;7.80;;;14.10;41.20;;;;;;5059586;28;20100;-78
2022/03/23 09:04:50;;;;;;;11.13;7.93;;;14.30;40.90;;;;;;5061221;28;20075;-81
2022/03/23 09:07:15;;;;;;;12.10;8.10;;;14.50;40.30;;;;;;5060691;28;20021;-78
2022/03/23 09:09:41;;;;;;;15.05;9.38;;;14.80;39.60;;;;;;5060478;28;20429;-78
2022/03/23 09:12:07;;;;;;;12.90;8.82;;;15.10;38.90;;;;;;5061364;28;20047;-80
2022/03/23 09:14:33;;;;;;;11.80;8.50;;;15.20;38.80;;;;;;5061461;28;20025;-79
2022/03/23 09:16:59;;;;;;;10.98;8.25;;;15.30;38.30;;;;;;5062821;28;20063;-79
2022/03/23 09:19:24;;;;;;;17.25;9.48;;;15.50;38.50;;;;;;5062910;28;20071;-78
2022/03/23 09:21:50;;;;;;;13.57;9.45;;;15.60;37.30;;;;;;5061418;28;20033;-79
2022/03/23 09:24:19;;;;;;;12.93;8.98;;;15.50;37.50;;;;;;5078135;28;20029;-79
2022/03/23 09:26:46;;;;;;;10.45;8.77;;;15.40;38.00;;;;;;5062620;28;20025;-78
2022/03/23 09:29:12;;;;;;;12.70;9.85;;;15.60;38.10;;;;;;5063207;28;20121;-79
2022/03/23 09:31:38;;;;;;;11.13;8.65;;;15.70;37.50;;;;;;5060829;28;20083;-79
2022/03/23 09:34:05;;;;;;;13.75;8.55;;;15.80;37.30;;;;;;5061214;28;20025;-80
2022/03/23 09:39:17;;;;;;;10.75;8.30;;;16.20;36.60;;;;;;5068054;28;20044;-78
2022/03/23 09:41:45;;;;;;;13.57;9.98;;;16.50;36.20;;;;;;5061739;28;20467;-78
2022/03/23 09:44:11;;;;;;;11.63;9.80;;;16.80;35.50;;;;;;5064315;28;20013;-79
2022/03/23 09:46:37;;;;;;;10.90;9.13;;;16.80;35.20;;;;;;5069970;28;20070;-78
2022/03/23 09:49:05;;;;;;;12.30;8.68;;;16.70;35.60;;;;;;5071252;28;20043;-79
2022/03/23 09:51:33;;;;;;;11.52;9.07;;;16.80;35.40;;;;;;5061385;28;20459;-82
2022/03/23 09:54:00;;;;;;;16.13;10.02;;;16.90;34.40;;;;;;5060371;28;20090;-80
2022/03/23 09:56:26;;;;;;;15.63;8.82;;;17.00;34.10;;;;;;5062342;28;20033;-78
2022/03/23 09:58:52;;;;;;;12.43;8.88;;;16.90;34.20;;;;;;5060318;28;20414;-79
2022/03/23 10:01:29;;;;;;;11.07;8.85;;;16.80;34.90;;;;;;5060274;28;20021;-80
2022/03/23 10:04:14;;;;;;;18.42;10.77;;;17.10;34.90;;;;;;5059479;28;20024;-79
2022/03/23 10:07:17;;;;;;;16.20;9.88;;;17.30;34.40;;;;;;5060443;28;20021;-79
2022/03/23 10:09:52;;;;;;;15.65;9.82;;;17.30;34.10;;;;;;5067510;28;20025;-78
2022/03/23 10:12:52;;;;;;;10.63;8.48;;;17.10;34.50;;;;;;5067095;28;20052;-80
2022/03/23 10:15:42;;;;;;;12.15;9.63;;;17.00;35.00;;;;;;5060198;28;20033;-79
2022/03/23 10:18:42;;;;;;;11.25;8.25;;;17.30;34.50;;;;;;5058973;28;20112;-80
2022/03/23 10:21:08;;;;;;;13.27;9.70;;;17.60;34.30;;;;;;5059462;28;20033;-79
2022/03/23 10:23:33;;;;;;;18.38;9.73;;;17.80;34.00;;;;;;5064342;28;20085;-79
2022/03/23 10:26:11;;;;;;;17.88;10.43;;;17.50;34.10;;;;;;5061536;28;20025;-80
2022/03/23 10:28:37;;;;;;;14.35;9.95;;;17.60;34.20;;;;;;5063342;28;20135;-79
2022/03/23 10:31:15;;;;;;;12.32;9.30;;;17.80;33.90;;;;;;5064114;28;20029;-79
2022/03/23 10:33:41;;;;;;;16.45;11.27;;;18.00;33.80;;;;;;5060040;28;20029;-78
2022/03/23 10:36:07;;;;;;;12.05;10.02;;;18.20;33.10;;;;;;5060326;28;20035;-79
2022/03/23 10:38:39;;;;;;;12.70;9.23;;;18.30;33.00;;;;;;5059961;28;20025;-79
2022/03/23 10:41:10;;;;;;;14.68;10.57;;;18.40;33.50;;;;;;5060477;28;20052;-80
2022/03/23 10:43:37;;;;;;;11.55;10.27;;;18.90;33.00;;;;;;5059964;28;20029;-79
2022/03/23 10:46:11;;;;;;;18.85;11.65;;;19.20;32.70;;;;;;5059602;28;20032;-79
2022/03/23 10:48:59;;;;;;;16.20;10.70;;;19.20;32.50;;;;;;5059142;28;20021;-80
2022/03/23 10:51:36;;;;;;;15.90;11.35;;;18.90;32.50;;;;;;5058997;28;20033;-81
2022/03/23 10:54:23;;;;;;;13.38;10.18;;;18.50;33.10;;;;;;5059237;28;20021;-81
2022/03/23 10:56:49;;;;;;;13.73;10.38;;;18.30;33.30;;;;;;5059340;28;20162;-80
2022/03/23 10:59:25;;;;;;;13.70;11.45;;;18.20;33.00;;;;;;5058032;28;20139;-79
2022/03/23 11:02:00;;;;;;;13.48;11.35;;;17.90;33.40;;;;;;5058246;28;20497;-80
2022/03/23 11:04:29;;;;;;;11.93;9.73;;;18.00;33.50;;;;;;5060085;28;20021;-81
2022/03/23 11:06:59;;;;;;;15.10;10.63;;;18.00;33.80;;;;;;5058711;28;20040;-80
2022/03/23 11:18:17;;;;;;;11.82;10.50;;;18.20;33.10;;;;;;5060261;28;20089;-79
2022/03/23 11:20:51;;;;;;;16.63;13.15;;;18.40;33.40;;;;;;5073204;22;20036;-80
2022/03/23 11:23:25;;;;;;;12.32;10.57;;;18.60;32.80;;;;;;5050626;28;20097;-79
2022/03/23 11:26:08;;;;;;;13.18;11.35;;;18.70;33.10;;;;;;5055450;28;20021;-80
2022/03/23 11:28:47;;;;;;;14.43;9.90;;;18.80;32.70;;;;;;5039250;28;20014;-81
2022/03/23 11:31:17;;;;;;;13.40;10.60;;;18.80;32.70;;;;;;5053986;28;20013;-81
2022/03/23 11:33:50;;;;;;;13.85;10.90;;;18.80;32.50;;;;;;5055885;28;20045;-81
2022/03/23 11:36:19;;;;;;;10.93;9.73;;;19.30;32.00;;;;;;5056504;28;20280;-79
2022/03/23 11:38:49;;;;;;;12.18;9.70;;;20.20;31.60;;;;;;5053759;28;20033;-80
2022/03/23 11:41:25;;;;;;;9.77;8.60;;;21.00;31.00;;;;;;5054554;28;20052;-79
2022/03/23 11:43:51;;;;;;;11.35;10.02;;;22.20;30.00;;;;;;5055800;28;20017;-80
2022/03/23 11:46:23;;;;;;;12.63;10.45;;;22.70;29.30;;;;;;5055660;28;20034;-79
2022/03/23 11:49:26;;;;;;;13.07;10.05;;;22.40;29.00;;;;;;5055302;28;20021;-79
2022/03/23 11:52:02;;;;;;;12.52;11.20;;;21.80;29.70;;;;;;5035629;28;20014;-79
2022/03/23 11:58:06;;;;;;;10.18;9.18;;;23.00;29.00;;;;;;5053076;28;20052;-78
2022/03/23 12:00:41;;;;;;;8.48;7.78;;;24.20;28.10;;;;;;5055025;28;20049;-79
2022/03/23 12:03:10;;;;;;;16.58;12.27;;;24.50;27.70;;;;;;5055527;28;20021;-79
2022/03/23 12:05:48;;;;;;;13.20;11.45;;;24.10;27.00;;;;;;5056597;28;20016;-79
2022/03/23 12:08:47;;;;;;;13.07;11.60;;;23.20;27.70;;;;;;5056234;28;20041;-80
2022/03/23 12:11:41;;;;;;;13.85;11.35;;;22.00;28.80;;;;;;5054907;28;20013;-77
2022/03/23 12:14:27;;;;;;;13.65;10.68;;;21.10;29.30;;;;;;5052117;28;20064;-79
2022/03/23 12:16:52;;;;;;;16.00;11.57;;;20.30;29.90;;;;;;5048889;28;20044;-78
2022/03/23 12:19:23;;;;;;;14.60;11.18;;;19.80;29.90;;;;;;5054764;28;20010;-79
2022/03/23 12:22:10;;;;;;;11.68;10.05;;;19.50;30.10;;;;;;5055551;28;20093;-80
2022/03/23 12:24:47;;;;;;;10.35;9.25;;;19.20;30.40;;;;;;5055835;28;20013;-81
2022/03/23 12:27:38;;;;;;;11.25;9.48;;;19.40;30.90;;;;;;5055313;28;20239;-79
2022/03/23 12:30:22;;;;;;;13.23;11.27;;;19.60;30.30;;;;;;5055765;28;20040;-78
2022/03/23 12:32:48;;;;;;;17.92;10.95;;;19.50;29.90;;;;;;5055544;28;20033;-78
2022/03/23 12:35:16;;;;;;;11.88;9.25;;;19.40;30.00;;;;;;5055728;28;20037;-77
2022/03/23 12:37:43;;;;;;;9.23;8.32;;;19.40;30.30;;;;;;5054673;28;20039;-78
2022/03/23 12:40:13;;;;;;;12.65;11.00;;;19.80;30.10;;;;;;5055217;28;20029;-79
2022/03/23 12:42:44;;;;;;;23.30;11.55;;;20.00;29.80;;;;;;5055926;28;20471;-81
2022/03/23 12:45:16;;;;;;;15.50;10.73;;;20.10;29.40;;;;;;5055792;28;20006;-78
2022/03/23 12:57:49;;;;;;;13.68;10.85;;;20.00;29.20;;;;;;5055545;28;20073;-78
2022/03/23 12:59:21;;;;;;;8.50;7.60;;;20.70;28.90;;;;;;5052951;28;20079;-79
2022/03/23 13:01:54;;;;;;;16.05;10.63;;;20.90;28.90;;;;;;5058060;28;20033;-79
2022/03/23 13:04:40;;;;;;;19.52;10.82;;;21.10;28.30;;;;;;5057542;28;20041;-79
2022/03/23 13:07:27;;;;;;;12.52;10.65;;;21.10;28.40;;;;;;5059027;28;20017;-82
2022/03/23 13:10:04;;;;;;;11.30;10.10;;;21.00;28.80;;;;;;5059216;28;20021;-78
2022/03/23 13:12:31;;;;;;;15.43;10.57;;;20.70;28.40;;;;;;5058556;28;20089;-79
2022/03/23 13:15:08;;;;;;;11.05;9.23;;;20.50;28.20;;;;;;5059281;28;20045;-79
2022/03/23 13:17:34;;;;;;;13.20;9.43;;;20.40;28.60;;;;;;5059146;28;20021;-77
2022/03/23 13:20:02;;;;;;;11.70;8.90;;;20.50;28.50;;;;;;5058158;28;20018;-79
2022/03/23 13:22:33;;;;;;;12.25;9.77;;;20.60;28.60;;;;;;5052691;28;20021;-80
2022/03/23 13:25:04;;;;;;;11.18;8.70;;;20.70;28.30;;;;;;5052691;28;20038;-80
2022/03/23 13:27:30;;;;;;;10.73;9.63;;;20.90;28.30;;;;;;5047664;28;20014;-78
2022/03/23 13:30:03;;;;;;;9.52;8.63;;;21.10;28.20;;;;;;5057012;28;20045;-80